sensor_id;sensor_type;location;lat;lon;timestamp;temperature;humidity
24408;DHT22;12542;50.924;4.516;2023-02-01T00:02:02;8.90;99.90
24408;DHT22;12542;50.924;4.516;2023-02-01T00:04:28;8.90;99.90
24408;DHT22;12542;50.924;4.516;2023-02-01T00:06:54;8.80;99.90
24408;DHT22;12542;50.924;4.516;2023-02-01T00:09:20;8.60;99.90
24408;DHT22;12542;50.924;4.516;2023-02-01T00:11:45;8.60;99.90
24408;DHT22;12542;50.924;4.516;2023-02-01T00:14:11;8.70;99.90
24408;DHT22;12542;50.924;4.516;2023-02-01T00:16:37;8.80;99.90
24408;DHT22;12542;50.924;4.516;2023-02-01T00:19:04;8.80;99.90
24408;DHT22;12542;50.924;4.516;2023-02-01T00:21:31;8.70;99.90
24408;DHT22;12542;50.924;4.516;2023-02-01T00:23:57;8.90;99.90
24408;DHT22;12542;50.924;4.516;2023-02-01T00:26:30;8.90;99.90
24408;DHT22;12542;50.924;4.516;2023-02-01T00:28:56;8.90;99.90
24408;DHT22;12542;50.924;4.516;2023-02-01T00:31:22;8.80;99.90
24408;DHT22;12542;50.924;4.516;2023-02-01T00:33:48;8.90;99.90
24408;DHT22;12542;50.924;4.516;2023-02-01T00:36:14;8.90;99.90
24408;DHT22;12542;50.924;4.516;2023-02-01T00:38:41;8.90;99.90
24408;DHT22;12542;50.924;4.516;2023-02-01T00:41:14;9.00;99.90
24408;DHT22;12542;50.924;4.516;2023-02-01T00:43:41;8.90;99.90
24408;DHT22;12542;50.924;4.516;2023-02-01T00:46:08;8.90;99.90
24408;DHT22;12542;50.924;4.516;2023-02-01T00:48:34;9.00;99.90
24408;DHT22;12542;50.924;4.516;2023-02-01T00:51:05;9.10;99.90
24408;DHT22;12542;50.924;4.516;2023-02-01T00:53:32;9.00;99.90
24408;DHT22;12542;50.924;4.516;2023-02-01T00:55:58;8.90;99.90
24408;DHT22;12542;50.924;4.516;2023-02-01T00:58:24;8.80;99.90
24408;DHT22;12542;50.924;4.516;2023-02-01T01:01:15;8.90;99.90
24408;DHT22;12542;50.924;4.516;2023-02-01T01:03:43;8.90;99.90
24408;DHT22;12542;50.924;4.516;2023-02-01T01:06:11;8.90;99.90
24408;DHT22;12542;50.924;4.516;2023-02-01T01:08:39;8.90;99.90
24408;DHT22;12542;50.924;4.516;2023-02-01T01:11:10;8.90;99.90
24408;DHT22;12542;50.924;4.516;2023-02-01T01:13:36;8.80;99.90
24408;DHT22;12542;50.924;4.516;2023-02-01T01:16:04;8.70;99.90
24408;DHT22;12542;50.924;4.516;2023-02-01T01:18:30;8.90;99.90
24408;DHT22;12542;50.924;4.516;2023-02-01T01:20:57;8.90;99.90
24408;DHT22;12542;50.924;4.516;2023-02-01T01:23:23;8.90;99.90
24408;DHT22;12542;50.924;4.516;2023-02-01T01:25:49;8.80;99.90
24408;DHT22;12542;50.924;4.516;2023-02-01T01:28:15;8.80;99.90
24408;DHT22;12542;50.924;4.516;2023-02-01T01:30:40;8.80;99.90
24408;DHT22;12542;50.924;4.516;2023-02-01T01:33:06;8.80;99.90
24408;DHT22;12542;50.924;4.516;2023-02-01T01:35:32;8.80;99.90
24408;DHT22;12542;50.924;4.516;2023-02-01T01:37:59;8.70;99.90
24408;DHT22;12542;50.924;4.516;2023-02-01T01:40:26;8.80;99.90
24408;DHT22;12542;50.924;4.516;2023-02-01T01:42:52;8.80;99.90
24408;DHT22;12542;50.924;4.516;2023-02-01T01:47:54;8.90;99.90
24408;DHT22;12542;50.924;4.516;2023-02-01T01:50:24;8.90;99.90
24408;DHT22;12542;50.924;4.516;2023-02-01T01:52:52;8.90;99.90
24408;DHT22;12542;50.924;4.516;2023-02-01T01:55:20;8.90;99.90
24408;DHT22;12542;50.924;4.516;2023-02-01T01:58:07;8.80;99.90
24408;DHT22;12542;50.924;4.516;2023-02-01T02:00:34;8.60;99.90
24408;DHT22;12542;50.924;4.516;2023-02-01T02:03:23;8.60;99.90
24408;DHT22;12542;50.924;4.516;2023-02-01T02:05:52;8.70;99.90
24408;DHT22;12542;50.924;4.516;2023-02-01T02:08:19;8.70;99.90
24408;DHT22;12542;50.924;4.516;2023-02-01T02:10:50;8.60;99.90
24408;DHT22;12542;50.924;4.516;2023-02-01T02:13:47;8.60;99.90
24408;DHT22;12542;50.924;4.516;2023-02-01T02:16:40;8.60;99.90
24408;DHT22;12542;50.924;4.516;2023-02-01T02:33:44;8.00;99.90
24408;DHT22;12542;50.924;4.516;2023-02-01T02:36:37;7.80;99.90
24408;DHT22;12542;50.924;4.516;2023-02-01T02:45:07;7.60;99.90
24408;DHT22;12542;50.924;4.516;2023-02-01T02:54:07;7.90;99.90
24408;DHT22;12542;50.924;4.516;2023-02-01T02:56:53;7.80;99.90
24408;DHT22;12542;50.924;4.516;2023-02-01T02:59:40;7.80;99.90
24408;DHT22;12542;50.924;4.516;2023-02-01T03:02:26;7.80;99.90
24408;DHT22;12542;50.924;4.516;2023-02-01T03:05:11;7.70;99.90
24408;DHT22;12542;50.924;4.516;2023-02-01T03:10:35;7.50;99.90
24408;DHT22;12542;50.924;4.516;2023-02-01T03:13:15;7.50;99.90
24408;DHT22;12542;50.924;4.516;2023-02-01T03:21:09;7.70;99.90
24408;DHT22;12542;50.924;4.516;2023-02-01T03:23:36;7.80;99.90
24408;DHT22;12542;50.924;4.516;2023-02-01T03:26:05;7.70;99.90
24408;DHT22;12542;50.924;4.516;2023-02-01T03:28:34;7.70;99.90
24408;DHT22;12542;50.924;4.516;2023-02-01T03:31:02;7.80;99.90
24408;DHT22;12542;50.924;4.516;2023-02-01T03:33:28;7.60;99.90
24408;DHT22;12542;50.924;4.516;2023-02-01T03:46:57;7.80;99.90
24408;DHT22;12542;50.924;4.516;2023-02-01T03:49:38;7.80;99.90
24408;DHT22;12542;50.924;4.516;2023-02-01T03:52:06;7.80;99.90
24408;DHT22;12542;50.924;4.516;2023-02-01T03:54:32;7.80;99.90
24408;DHT22;12542;50.924;4.516;2023-02-01T03:57:01;7.80;99.90
24408;DHT22;12542;50.924;4.516;2023-02-01T03:59:28;7.70;99.90
24408;DHT22;12542;50.924;4.516;2023-02-01T04:01:54;7.80;99.90
24408;DHT22;12542;50.924;4.516;2023-02-01T04:04:20;7.80;99.90
24408;DHT22;12542;50.924;4.516;2023-02-01T04:06:49;7.70;99.90
24408;DHT22;12542;50.924;4.516;2023-02-01T04:09:16;7.70;99.90
24408;DHT22;12542;50.924;4.516;2023-02-01T04:11:45;7.80;99.90
24408;DHT22;12542;50.924;4.516;2023-02-01T04:14:10;7.60;99.90
24408;DHT22;12542;50.924;4.516;2023-02-01T04:16:36;7.50;99.90
24408;DHT22;12542;50.924;4.516;2023-02-01T04:19:02;7.60;99.90
24408;DHT22;12542;50.924;4.516;2023-02-01T04:21:28;7.60;99.90
24408;DHT22;12542;50.924;4.516;2023-02-01T04:23:54;7.50;99.90
24408;DHT22;12542;50.924;4.516;2023-02-01T04:26:21;7.50;99.90
24408;DHT22;12542;50.924;4.516;2023-02-01T04:28:47;7.50;99.90
24408;DHT22;12542;50.924;4.516;2023-02-01T04:31:14;7.50;99.90
24408;DHT22;12542;50.924;4.516;2023-02-01T04:33:40;7.50;99.90
24408;DHT22;12542;50.924;4.516;2023-02-01T04:36:05;7.40;99.90
24408;DHT22;12542;50.924;4.516;2023-02-01T04:38:31;7.40;99.90
24408;DHT22;12542;50.924;4.516;2023-02-01T04:40:58;7.20;99.90
24408;DHT22;12542;50.924;4.516;2023-02-01T04:43:24;7.20;99.90
24408;DHT22;12542;50.924;4.516;2023-02-01T04:45:50;7.10;99.90
24408;DHT22;12542;50.924;4.516;2023-02-01T04:48:17;7.10;99.90
24408;DHT22;12542;50.924;4.516;2023-02-01T04:50:44;7.00;99.90
24408;DHT22;12542;50.924;4.516;2023-02-01T04:53:16;6.90;99.90
24408;DHT22;12542;50.924;4.516;2023-02-01T04:55:43;7.00;99.90
24408;DHT22;12542;50.924;4.516;2023-02-01T04:58:09;7.10;99.90
24408;DHT22;12542;50.924;4.516;2023-02-01T05:00:36;7.10;99.90
24408;DHT22;12542;50.924;4.516;2023-02-01T05:03:02;7.20;99.90
24408;DHT22;12542;50.924;4.516;2023-02-01T05:05:28;7.20;99.90
24408;DHT22;12542;50.924;4.516;2023-02-01T05:07:55;7.30;99.90
24408;DHT22;12542;50.924;4.516;2023-02-01T05:10:21;7.20;99.90
24408;DHT22;12542;50.924;4.516;2023-02-01T05:12:46;7.00;99.90
24408;DHT22;12542;50.924;4.516;2023-02-01T05:15:31;7.00;99.90
24408;DHT22;12542;50.924;4.516;2023-02-01T05:17:57;7.10;99.90
24408;DHT22;12542;50.924;4.516;2023-02-01T05:20:23;6.90;99.90
24408;DHT22;12542;50.924;4.516;2023-02-01T05:22:49;7.00;99.90
24408;DHT22;12542;50.924;4.516;2023-02-01T05:25:15;7.10;99.90
24408;DHT22;12542;50.924;4.516;2023-02-01T05:27:41;7.00;99.90
24408;DHT22;12542;50.924;4.516;2023-02-01T05:30:07;7.10;99.90
24408;DHT22;12542;50.924;4.516;2023-02-01T05:32:33;7.10;99.90
24408;DHT22;12542;50.924;4.516;2023-02-01T05:34:59;7.20;99.90
24408;DHT22;12542;50.924;4.516;2023-02-01T05:37:25;7.20;99.90
24408;DHT22;12542;50.924;4.516;2023-02-01T05:39:50;7.10;99.90
24408;DHT22;12542;50.924;4.516;2023-02-01T05:42:16;7.30;99.90
24408;DHT22;12542;50.924;4.516;2023-02-01T05:44:42;7.10;99.90
24408;DHT22;12542;50.924;4.516;2023-02-01T05:47:07;6.90;99.90
24408;DHT22;12542;50.924;4.516;2023-02-01T05:49:33;7.00;99.90
24408;DHT22;12542;50.924;4.516;2023-02-01T05:51:59;7.00;99.90
24408;DHT22;12542;50.924;4.516;2023-02-01T05:54:25;6.80;99.90
24408;DHT22;12542;50.924;4.516;2023-02-01T05:56:50;6.80;99.90
24408;DHT22;12542;50.924;4.516;2023-02-01T05:59:16;6.70;99.90
24408;DHT22;12542;50.924;4.516;2023-02-01T06:01:42;6.80;99.90
24408;DHT22;12542;50.924;4.516;2023-02-01T06:04:10;6.70;99.90
24408;DHT22;12542;50.924;4.516;2023-02-01T06:06:35;6.60;99.90
24408;DHT22;12542;50.924;4.516;2023-02-01T06:09:03;6.80;99.90
24408;DHT22;12542;50.924;4.516;2023-02-01T06:11:29;6.80;99.90
24408;DHT22;12542;50.924;4.516;2023-02-01T06:13:54;6.70;99.90
24408;DHT22;12542;50.924;4.516;2023-02-01T06:16:25;6.50;99.90
24408;DHT22;12542;50.924;4.516;2023-02-01T06:18:53;6.60;99.90
24408;DHT22;12542;50.924;4.516;2023-02-01T06:21:22;6.70;99.90
24408;DHT22;12542;50.924;4.516;2023-02-01T06:23:51;6.70;99.90
24408;DHT22;12542;50.924;4.516;2023-02-01T06:26:17;6.60;99.90
24408;DHT22;12542;50.924;4.516;2023-02-01T06:28:43;6.60;99.90
24408;DHT22;12542;50.924;4.516;2023-02-01T06:31:09;6.60;99.90
24408;DHT22;12542;50.924;4.516;2023-02-01T06:33:35;6.60;99.90
24408;DHT22;12542;50.924;4.516;2023-02-01T06:36:03;6.70;99.90
24408;DHT22;12542;50.924;4.516;2023-02-01T06:38:30;6.60;99.90
24408;DHT22;12542;50.924;4.516;2023-02-01T06:40:56;6.70;99.90
24408;DHT22;12542;50.924;4.516;2023-02-01T06:43:24;6.80;99.90
24408;DHT22;12542;50.924;4.516;2023-02-01T06:45:51;6.80;99.90
24408;DHT22;12542;50.924;4.516;2023-02-01T06:48:17;6.50;99.90
24408;DHT22;12542;50.924;4.516;2023-02-01T06:50:43;6.50;99.90
24408;DHT22;12542;50.924;4.516;2023-02-01T06:53:09;6.50;99.90
24408;DHT22;12542;50.924;4.516;2023-02-01T06:55:35;6.40;99.90
24408;DHT22;12542;50.924;4.516;2023-02-01T06:58:01;6.40;99.90
24408;DHT22;12542;50.924;4.516;2023-02-01T07:00:28;6.60;99.90
24408;DHT22;12542;50.924;4.516;2023-02-01T07:02:54;6.40;99.90
24408;DHT22;12542;50.924;4.516;2023-02-01T07:05:20;6.50;99.90
24408;DHT22;12542;50.924;4.516;2023-02-01T07:07:46;6.60;99.90
24408;DHT22;12542;50.924;4.516;2023-02-01T07:10:12;6.60;99.90
24408;DHT22;12542;50.924;4.516;2023-02-01T07:12:38;6.50;99.90
24408;DHT22;12542;50.924;4.516;2023-02-01T07:15:05;6.60;99.90
24408;DHT22;12542;50.924;4.516;2023-02-01T07:17:31;6.60;99.90
24408;DHT22;12542;50.924;4.516;2023-02-01T07:19:56;6.60;99.90
24408;DHT22;12542;50.924;4.516;2023-02-01T07:22:24;6.70;99.90
24408;DHT22;12542;50.924;4.516;2023-02-01T07:24:49;6.90;99.90
24408;DHT22;12542;50.924;4.516;2023-02-01T07:27:15;6.70;99.90
24408;DHT22;12542;50.924;4.516;2023-02-01T07:29:41;6.60;99.90
24408;DHT22;12542;50.924;4.516;2023-02-01T07:32:06;6.70;99.90
24408;DHT22;12542;50.924;4.516;2023-02-01T07:34:32;6.70;99.90
24408;DHT22;12542;50.924;4.516;2023-02-01T07:37:01;6.80;99.90
24408;DHT22;12542;50.924;4.516;2023-02-01T07:39:28;6.90;99.90
24408;DHT22;12542;50.924;4.516;2023-02-01T07:41:54;6.90;99.90
24408;DHT22;12542;50.924;4.516;2023-02-01T07:44:20;6.90;99.90
24408;DHT22;12542;50.924;4.516;2023-02-01T07:46:49;7.00;99.90
24408;DHT22;12542;50.924;4.516;2023-02-01T07:49:14;7.10;99.90
24408;DHT22;12542;50.924;4.516;2023-02-01T07:51:40;7.10;99.90
24408;DHT22;12542;50.924;4.516;2023-02-01T07:54:06;7.20;99.90
24408;DHT22;12542;50.924;4.516;2023-02-01T07:56:32;7.40;99.90
24408;DHT22;12542;50.924;4.516;2023-02-01T07:58:57;7.50;99.90
24408;DHT22;12542;50.924;4.516;2023-02-01T08:01:27;7.60;99.90
24408;DHT22;12542;50.924;4.516;2023-02-01T08:03:54;7.80;99.90
24408;DHT22;12542;50.924;4.516;2023-02-01T08:06:20;7.80;99.90
24408;DHT22;12542;50.924;4.516;2023-02-01T08:08:49;8.00;99.90
24408;DHT22;12542;50.924;4.516;2023-02-01T08:11:16;8.20;99.90
24408;DHT22;12542;50.924;4.516;2023-02-01T08:13:42;8.40;99.90
24408;DHT22;12542;50.924;4.516;2023-02-01T08:16:10;9.10;99.90
24408;DHT22;12542;50.924;4.516;2023-02-01T08:18:37;10.00;99.90
24408;DHT22;12542;50.924;4.516;2023-02-01T08:21:24;10.40;99.90
24408;DHT22;12542;50.924;4.516;2023-02-01T08:23:50;10.30;99.90
24408;DHT22;12542;50.924;4.516;2023-02-01T08:26:19;9.80;99.90
24408;DHT22;12542;50.924;4.516;2023-02-01T08:28:55;9.40;99.90
24408;DHT22;12542;50.924;4.516;2023-02-01T08:31:23;9.30;99.90
24408;DHT22;12542;50.924;4.516;2023-02-01T08:33:51;8.70;99.90
24408;DHT22;12542;50.924;4.516;2023-02-01T08:36:21;8.60;99.90
24408;DHT22;12542;50.924;4.516;2023-02-01T08:38:47;8.30;99.90
24408;DHT22;12542;50.924;4.516;2023-02-01T08:41:15;8.40;99.90
24408;DHT22;12542;50.924;4.516;2023-02-01T08:43:42;8.40;99.90
24408;DHT22;12542;50.924;4.516;2023-02-01T08:46:08;8.30;99.90
24408;DHT22;12542;50.924;4.516;2023-02-01T08:48:34;8.50;99.90
24408;DHT22;12542;50.924;4.516;2023-02-01T08:51:05;8.60;99.90
24408;DHT22;12542;50.924;4.516;2023-02-01T08:53:31;8.60;99.90
24408;DHT22;12542;50.924;4.516;2023-02-01T08:55:59;8.50;99.90
24408;DHT22;12542;50.924;4.516;2023-02-01T08:58:26;8.60;99.90
24408;DHT22;12542;50.924;4.516;2023-02-01T09:00:51;8.70;99.90
24408;DHT22;12542;50.924;4.516;2023-02-01T09:03:17;8.80;99.90
24408;DHT22;12542;50.924;4.516;2023-02-01T09:05:43;8.80;99.90
24408;DHT22;12542;50.924;4.516;2023-02-01T09:08:11;8.80;99.90
24408;DHT22;12542;50.924;4.516;2023-02-01T09:10:39;9.10;99.90
24408;DHT22;12542;50.924;4.516;2023-02-01T09:13:06;9.40;99.90
24408;DHT22;12542;50.924;4.516;2023-02-01T09:15:33;9.60;99.90
24408;DHT22;12542;50.924;4.516;2023-02-01T09:17:59;10.20;99.90
24408;DHT22;12542;50.924;4.516;2023-02-01T09:20:25;11.30;99.90
24408;DHT22;12542;50.924;4.516;2023-02-01T09:22:51;11.30;99.90
24408;DHT22;12542;50.924;4.516;2023-02-01T09:25:17;11.40;99.90
24408;DHT22;12542;50.924;4.516;2023-02-01T09:27:43;11.50;99.90
24408;DHT22;12542;50.924;4.516;2023-02-01T09:30:09;11.30;99.90
24408;DHT22;12542;50.924;4.516;2023-02-01T09:32:35;12.00;99.90
24408;DHT22;12542;50.924;4.516;2023-02-01T09:35:01;12.70;99.90
24408;DHT22;12542;50.924;4.516;2023-02-01T09:37:27;13.20;99.90
24408;DHT22;12542;50.924;4.516;2023-02-01T09:39:53;14.10;99.90
24408;DHT22;12542;50.924;4.516;2023-02-01T09:48:13;14.00;99.90
24408;DHT22;12542;50.924;4.516;2023-02-01T09:50:56;14.50;99.90
24408;DHT22;12542;50.924;4.516;2023-02-01T09:53:35;15.20;99.90
24408;DHT22;12542;50.924;4.516;2023-02-01T09:56:13;15.40;99.90
24408;DHT22;12542;50.924;4.516;2023-02-01T09:58:44;15.10;99.90
24408;DHT22;12542;50.924;4.516;2023-02-01T10:01:24;15.70;99.90
24408;DHT22;12542;50.924;4.516;2023-02-01T10:04:03;15.60;99.90
24408;DHT22;12542;50.924;4.516;2023-02-01T10:09:15;15.50;99.90
24408;DHT22;12542;50.924;4.516;2023-02-01T10:19:41;14.80;99.90
24408;DHT22;12542;50.924;4.516;2023-02-01T10:22:14;14.80;99.90
24408;DHT22;12542;50.924;4.516;2023-02-01T10:24:52;15.00;99.90
24408;DHT22;12542;50.924;4.516;2023-02-01T10:27:30;14.90;99.90
24408;DHT22;12542;50.924;4.516;2023-02-01T10:29:59;14.60;99.90
24408;DHT22;12542;50.924;4.516;2023-02-01T10:32:31;14.60;99.90
24408;DHT22;12542;50.924;4.516;2023-02-01T10:35:00;14.50;99.90
24408;DHT22;12542;50.924;4.516;2023-02-01T10:37:32;14.40;99.90
24408;DHT22;12542;50.924;4.516;2023-02-01T10:40:22;14.40;99.90
24408;DHT22;12542;50.924;4.516;2023-02-01T10:42:55;14.20;99.90
24408;DHT22;12542;50.924;4.516;2023-02-01T10:45:25;13.70;99.90
24408;DHT22;12542;50.924;4.516;2023-02-01T10:47:52;13.70;99.90
24408;DHT22;12542;50.924;4.516;2023-02-01T10:50:53;13.40;99.90
24408;DHT22;12542;50.924;4.516;2023-02-01T10:53:34;13.50;99.90
24408;DHT22;12542;50.924;4.516;2023-02-01T10:56:09;13.40;99.90
24408;DHT22;12542;50.924;4.516;2023-02-01T10:58:42;13.80;99.90
24408;DHT22;12542;50.924;4.516;2023-02-01T11:01:10;13.80;99.90
24408;DHT22;12542;50.924;4.516;2023-02-01T11:03:55;13.40;99.90
24408;DHT22;12542;50.924;4.516;2023-02-01T11:06:35;13.00;99.90
24408;DHT22;12542;50.924;4.516;2023-02-01T11:09:18;13.00;99.90
24408;DHT22;12542;50.924;4.516;2023-02-01T11:16:53;12.90;99.90
24408;DHT22;12542;50.924;4.516;2023-02-01T11:19:19;12.70;99.90
24408;DHT22;12542;50.924;4.516;2023-02-01T11:21:52;12.40;99.90
24408;DHT22;12542;50.924;4.516;2023-02-01T11:24:29;12.60;99.90
24408;DHT22;12542;50.924;4.516;2023-02-01T11:26:58;12.70;99.90
24408;DHT22;12542;50.924;4.516;2023-02-01T11:29:25;12.90;99.90
24408;DHT22;12542;50.924;4.516;2023-02-01T11:31:59;12.90;99.90
24408;DHT22;12542;50.924;4.516;2023-02-01T11:34:31;12.90;99.90
24408;DHT22;12542;50.924;4.516;2023-02-01T11:37:00;12.90;99.90
24408;DHT22;12542;50.924;4.516;2023-02-01T11:39:33;12.60;99.90
24408;DHT22;12542;50.924;4.516;2023-02-01T11:47:29;12.20;99.90
24408;DHT22;12542;50.924;4.516;2023-02-01T11:50:02;12.50;99.90
24408;DHT22;12542;50.924;4.516;2023-02-01T12:01:46;12.60;99.90
24408;DHT22;12542;50.924;4.516;2023-02-01T12:04:41;12.60;99.90
24408;DHT22;12542;50.924;4.516;2023-02-01T12:12:53;12.90;99.90
24408;DHT22;12542;50.924;4.516;2023-02-01T12:32:46;13.50;99.90
24408;DHT22;12542;50.924;4.516;2023-02-01T12:35:43;13.30;99.90
24408;DHT22;12542;50.924;4.516;2023-02-01T12:38:20;13.30;99.90
24408;DHT22;12542;50.924;4.516;2023-02-01T12:40:54;13.40;99.90
24408;DHT22;12542;50.924;4.516;2023-02-01T12:43:44;13.20;99.90
24408;DHT22;12542;50.924;4.516;2023-02-01T12:46:19;12.80;99.90
24408;DHT22;12542;50.924;4.516;2023-02-01T12:48:55;12.50;99.90
24408;DHT22;12542;50.924;4.516;2023-02-01T12:51:33;12.60;99.90
24408;DHT22;12542;50.924;4.516;2023-02-01T12:59:40;12.80;99.90
24408;DHT22;12542;50.924;4.516;2023-02-01T13:02:30;12.90;99.90
24408;DHT22;12542;50.924;4.516;2023-02-01T13:07:43;12.80;99.90
24408;DHT22;12542;50.924;4.516;2023-02-01T13:15:48;12.90;99.90
24408;DHT22;12542;50.924;4.516;2023-02-01T13:18:18;12.50;99.90
24408;DHT22;12542;50.924;4.516;2023-02-01T13:23:21;12.10;99.90
24408;DHT22;12542;50.924;4.516;2023-02-01T13:25:51;12.10;99.90
24408;DHT22;12542;50.924;4.516;2023-02-01T13:28:29;12.20;99.90
24408;DHT22;12542;50.924;4.516;2023-02-01T13:41:33;11.90;99.90
24408;DHT22;12542;50.924;4.516;2023-02-01T13:44:14;11.80;99.90
24408;DHT22;12542;50.924;4.516;2023-02-01T13:46:45;11.70;99.90
24408;DHT22;12542;50.924;4.516;2023-02-01T13:49:24;11.70;99.90
24408;DHT22;12542;50.924;4.516;2023-02-01T13:51:56;11.70;99.90
24408;DHT22;12542;50.924;4.516;2023-02-01T13:54:34;11.50;99.90
24408;DHT22;12542;50.924;4.516;2023-02-01T13:57:03;11.30;99.90
24408;DHT22;12542;50.924;4.516;2023-02-01T14:10:54;11.30;99.90
24408;DHT22;12542;50.924;4.516;2023-02-01T14:23:45;11.40;99.90
24408;DHT22;12542;50.924;4.516;2023-02-01T14:29:12;11.50;99.90
24408;DHT22;12542;50.924;4.516;2023-02-01T14:32:01;11.30;99.90
24408;DHT22;12542;50.924;4.516;2023-02-01T14:34:34;11.10;99.90
24408;DHT22;12542;50.924;4.516;2023-02-01T14:37:07;11.00;99.90
24408;DHT22;12542;50.924;4.516;2023-02-01T14:45:45;11.00;99.90
24408;DHT22;12542;50.924;4.516;2023-02-01T14:47:41;10.80;99.90
24408;DHT22;12542;50.924;4.516;2023-02-01T14:52:41;10.90;99.90
24408;DHT22;12542;50.924;4.516;2023-02-01T14:55:51;11.00;99.90
24408;DHT22;12542;50.924;4.516;2023-02-01T14:58:42;11.00;99.90
24408;DHT22;12542;50.924;4.516;2023-02-01T15:06:52;10.90;99.90
24408;DHT22;12542;50.924;4.516;2023-02-01T15:14:38;10.80;99.90
24408;DHT22;12542;50.924;4.516;2023-02-01T15:17:40;10.60;99.90
24408;DHT22;12542;50.924;4.516;2023-02-01T15:20:19;10.50;99.90
24408;DHT22;12542;50.924;4.516;2023-02-01T15:23:17;10.60;99.90
24408;DHT22;12542;50.924;4.516;2023-02-01T15:25:45;10.50;99.90
24408;DHT22;12542;50.924;4.516;2023-02-01T15:28:15;10.50;99.90
24408;DHT22;12542;50.924;4.516;2023-02-01T15:30:56;10.40;99.90
24408;DHT22;12542;50.924;4.516;2023-02-01T15:33:22;10.50;99.90
24408;DHT22;12542;50.924;4.516;2023-02-01T15:35:49;10.40;99.90
24408;DHT22;12542;50.924;4.516;2023-02-01T15:43:24;10.50;99.90
24408;DHT22;12542;50.924;4.516;2023-02-01T15:45:50;10.50;99.90
24408;DHT22;12542;50.924;4.516;2023-02-01T15:48:22;10.50;99.90
24408;DHT22;12542;50.924;4.516;2023-02-01T15:50:49;10.50;99.90
24408;DHT22;12542;50.924;4.516;2023-02-01T15:53:19;10.50;99.90
24408;DHT22;12542;50.924;4.516;2023-02-01T15:55:46;10.50;99.90
24408;DHT22;12542;50.924;4.516;2023-02-01T15:58:19;10.50;99.90
24408;DHT22;12542;50.924;4.516;2023-02-01T16:03:37;10.30;99.90
24408;DHT22;12542;50.924;4.516;2023-02-01T16:06:26;10.30;99.90
24408;DHT22;12542;50.924;4.516;2023-02-01T16:11:28;10.30;99.90
24408;DHT22;12542;50.924;4.516;2023-02-01T16:13:56;10.40;99.90
24408;DHT22;12542;50.924;4.516;2023-02-01T16:16:23;10.40;99.90
24408;DHT22;12542;50.924;4.516;2023-02-01T16:18:49;10.30;99.90
24408;DHT22;12542;50.924;4.516;2023-02-01T16:21:14;10.40;99.90
24408;DHT22;12542;50.924;4.516;2023-02-01T16:23:40;10.40;99.90
24408;DHT22;12542;50.924;4.516;2023-02-01T16:26:06;10.50;99.90
24408;DHT22;12542;50.924;4.516;2023-02-01T16:28:32;10.40;99.90
24408;DHT22;12542;50.924;4.516;2023-02-01T16:30:58;10.50;99.90
24408;DHT22;12542;50.924;4.516;2023-02-01T16:33:25;10.50;99.90
24408;DHT22;12542;50.924;4.516;2023-02-01T16:35:52;10.30;99.90
24408;DHT22;12542;50.924;4.516;2023-02-01T16:38:21;10.30;99.90
24408;DHT22;12542;50.924;4.516;2023-02-01T16:40:49;10.20;99.90
24408;DHT22;12542;50.924;4.516;2023-02-01T16:43:20;10.20;99.90
24408;DHT22;12542;50.924;4.516;2023-02-01T16:45:48;10.40;99.90
24408;DHT22;12542;50.924;4.516;2023-02-01T16:48:34;10.40;99.90
24408;DHT22;12542;50.924;4.516;2023-02-01T16:51:03;10.20;99.90
24408;DHT22;12542;50.924;4.516;2023-02-01T16:53:32;10.30;99.90
24408;DHT22;12542;50.924;4.516;2023-02-01T16:55:58;10.30;99.90
24408;DHT22;12542;50.924;4.516;2023-02-01T16:58:25;10.30;99.90
24408;DHT22;12542;50.924;4.516;2023-02-01T17:00:52;10.30;99.90
24408;DHT22;12542;50.924;4.516;2023-02-01T17:03:19;10.40;99.90
24408;DHT22;12542;50.924;4.516;2023-02-01T17:05:50;10.40;99.90
24408;DHT22;12542;50.924;4.516;2023-02-01T17:08:22;10.40;99.90
24408;DHT22;12542;50.924;4.516;2023-02-01T17:10:49;10.50;99.90
24408;DHT22;12542;50.924;4.516;2023-02-01T17:13:17;10.60;99.90
24408;DHT22;12542;50.924;4.516;2023-02-01T17:15:53;10.40;99.90
24408;DHT22;12542;50.924;4.516;2023-02-01T17:18:20;10.40;99.90
24408;DHT22;12542;50.924;4.516;2023-02-01T17:20:46;10.40;99.90
24408;DHT22;12542;50.924;4.516;2023-02-01T17:23:14;10.50;99.90
24408;DHT22;12542;50.924;4.516;2023-02-01T17:25:40;10.50;99.90
24408;DHT22;12542;50.924;4.516;2023-02-01T17:28:08;10.30;99.90
24408;DHT22;12542;50.924;4.516;2023-02-01T17:30:35;10.30;99.90
24408;DHT22;12542;50.924;4.516;2023-02-01T17:33:02;10.40;99.90
24408;DHT22;12542;50.924;4.516;2023-02-01T17:35:28;10.20;99.90
24408;DHT22;12542;50.924;4.516;2023-02-01T17:37:55;10.20;99.90
24408;DHT22;12542;50.924;4.516;2023-02-01T17:40:21;10.20;99.90
24408;DHT22;12542;50.924;4.516;2023-02-01T17:42:47;10.10;99.90
24408;DHT22;12542;50.924;4.516;2023-02-01T17:48:04;10.00;99.90
24408;DHT22;12542;50.924;4.516;2023-02-01T17:50:31;10.10;99.90
24408;DHT22;12542;50.924;4.516;2023-02-01T17:52:58;10.20;99.90
24408;DHT22;12542;50.924;4.516;2023-02-01T17:55:25;10.30;99.90
24408;DHT22;12542;50.924;4.516;2023-02-01T17:57:50;10.30;99.90
24408;DHT22;12542;50.924;4.516;2023-02-01T18:00:18;10.40;99.90
24408;DHT22;12542;50.924;4.516;2023-02-01T18:02:44;10.30;99.90
24408;DHT22;12542;50.924;4.516;2023-02-01T18:07:58;10.50;99.90
24408;DHT22;12542;50.924;4.516;2023-02-01T18:10:24;10.30;99.90
24408;DHT22;12542;50.924;4.516;2023-02-01T18:12:49;10.40;99.90
24408;DHT22;12542;50.924;4.516;2023-02-01T18:17:41;10.30;99.90
24408;DHT22;12542;50.924;4.516;2023-02-01T18:20:13;10.20;99.90
24408;DHT22;12542;50.924;4.516;2023-02-01T18:22:40;10.20;99.90
24408;DHT22;12542;50.924;4.516;2023-02-01T18:25:18;10.20;99.90
24408;DHT22;12542;50.924;4.516;2023-02-01T18:27:46;10.40;99.90
24408;DHT22;12542;50.924;4.516;2023-02-01T18:30:12;10.50;99.90
24408;DHT22;12542;50.924;4.516;2023-02-01T18:32:39;10.40;99.90
24408;DHT22;12542;50.924;4.516;2023-02-01T18:35:20;10.40;99.90
24408;DHT22;12542;50.924;4.516;2023-02-01T18:37:48;10.40;99.90
24408;DHT22;12542;50.924;4.516;2023-02-01T18:40:15;10.20;99.90
24408;DHT22;12542;50.924;4.516;2023-02-01T18:42:41;10.30;99.90
24408;DHT22;12542;50.924;4.516;2023-02-01T18:45:30;10.30;99.90
24408;DHT22;12542;50.924;4.516;2023-02-01T18:47:58;10.20;99.90
24408;DHT22;12542;50.924;4.516;2023-02-01T18:50:25;10.10;99.90
24408;DHT22;12542;50.924;4.516;2023-02-01T18:52:56;10.20;99.90
24408;DHT22;12542;50.924;4.516;2023-02-01T18:55:22;10.10;99.90
24408;DHT22;12542;50.924;4.516;2023-02-01T18:57:49;10.20;99.90
24408;DHT22;12542;50.924;4.516;2023-02-01T19:00:15;10.20;99.90
24408;DHT22;12542;50.924;4.516;2023-02-01T19:02:42;10.30;99.90
24408;DHT22;12542;50.924;4.516;2023-02-01T19:05:09;10.30;99.90
24408;DHT22;12542;50.924;4.516;2023-02-01T19:07:36;10.40;99.90
24408;DHT22;12542;50.924;4.516;2023-02-01T19:10:04;10.30;99.90
24408;DHT22;12542;50.924;4.516;2023-02-01T19:12:31;10.20;99.90
24408;DHT22;12542;50.924;4.516;2023-02-01T19:15:01;10.20;99.90